createdAt,value
2017-12-04T00:00:29.458Z,98254.57
2017-12-04T00:02:57.022Z,98260.13
2017-12-04T00:05:24.535Z,98254.15
2017-12-04T00:07:52.078Z,98257.75
2017-12-04T00:10:19.618Z,98265.77
2017-12-04T00:12:47.145Z,98263.36
2017-12-04T00:15:14.671Z,98263.09
2017-12-04T00:17:42.222Z,98263.00
2017-12-04T00:20:10.871Z,98264.48
2017-12-04T00:22:38.398Z,98271.52
2017-12-04T00:25:06.150Z,98269.47
2017-12-04T00:27:33.724Z,98273.21
2017-12-04T00:30:01.250Z,98277.87
2017-12-04T00:32:28.995Z,98278.34
2017-12-04T00:34:56.506Z,98279.55
2017-12-04T00:37:24.627Z,98289.16
2017-12-04T00:39:52.173Z,98286.69
2017-12-04T00:42:19.694Z,98288.33
2017-12-04T00:44:47.205Z,98287.18
2017-12-04T00:47:14.910Z,98292.92
2017-12-04T00:49:42.421Z,98291.30
2017-12-04T00:52:09.982Z,98288.50
2017-12-04T00:54:37.541Z,98288.52
2017-12-04T00:57:05.054Z,98278.79
2017-12-04T00:59:32.601Z,98284.52
2017-12-04T01:02:00.350Z,98287.14
2017-12-04T01:04:27.879Z,98296.71
2017-12-04T01:06:55.386Z,98289.17
2017-12-04T01:09:23.416Z,98289.23
2017-12-04T01:11:50.965Z,98279.27
2017-12-04T01:14:18.530Z,98283.04
2017-12-04T01:16:46.085Z,98292.66
2017-12-04T01:19:13.598Z,98293.57
2017-12-04T01:21:41.116Z,98285.09
2017-12-04T01:24:08.965Z,98293.47
2017-12-04T01:26:36.469Z,98293.97
2017-12-04T01:29:03.987Z,98293.12
2017-12-04T01:31:31.729Z,98296.55
2017-12-04T01:34:00.366Z,98300.25
2017-12-04T01:36:27.882Z,98301.04
2017-12-04T01:38:55.551Z,98309.15
2017-12-04T01:41:23.124Z,98305.86
2017-12-04T01:43:50.668Z,98313.59
2017-12-04T01:46:18.435Z,98319.89
2017-12-04T01:48:45.991Z,98323.27
2017-12-04T01:51:13.550Z,98321.66
2017-12-04T01:53:41.312Z,98320.83
2017-12-04T01:56:08.874Z,98315.68
2017-12-04T01:58:36.436Z,98317.88
2017-12-04T02:01:04.323Z,98311.70
2017-12-04T02:03:31.834Z,98316.39
2017-12-04T02:05:59.350Z,98314.20
2017-12-04T02:08:27.261Z,98317.55
2017-12-04T02:10:54.766Z,98316.39
2017-12-04T02:13:22.297Z,98307.13
2017-12-04T02:15:49.954Z,98312.97
2017-12-04T02:18:17.466Z,98309.89
2017-12-04T02:20:44.974Z,98311.93
2017-12-04T02:23:13.046Z,98313.32
2017-12-04T02:25:40.561Z,98313.75
2017-12-04T02:28:08.107Z,98311.72
2017-12-04T02:30:35.931Z,98313.32
2017-12-04T02:33:03.488Z,98318.81
2017-12-04T02:35:31.046Z,98316.39
2017-12-04T02:37:58.608Z,98313.22
2017-12-04T02:40:26.167Z,98316.30
2017-12-04T02:42:53.724Z,98313.24
2017-12-04T02:45:21.693Z,98319.20
2017-12-04T02:47:49.253Z,98315.77
2017-12-04T02:50:16.789Z,98317.22
2017-12-04T02:52:44.369Z,98316.09
2017-12-04T02:55:11.878Z,98329.55
2017-12-04T02:57:39.384Z,98322.82
2017-12-04T03:00:07.336Z,98318.20
2017-12-04T03:02:35.738Z,98321.22
2017-12-04T03:05:03.297Z,98315.30
2017-12-04T03:07:30.853Z,98320.47
2017-12-04T03:09:58.369Z,98324.28
2017-12-04T03:12:26.282Z,98324.67
2017-12-04T03:14:54.040Z,98328.36
2017-12-04T03:17:21.554Z,98333.63
2017-12-04T03:19:49.067Z,98330.96
2017-12-04T03:22:17.023Z,98331.84
2017-12-04T03:24:44.530Z,98340.59
2017-12-04T03:27:12.038Z,98337.68
2017-12-04T03:29:39.821Z,98333.48
2017-12-04T03:32:07.556Z,98331.67
2017-12-04T03:34:35.082Z,98328.55
2017-12-04T03:37:02.806Z,98336.45
2017-12-04T03:39:30.347Z,98332.72
2017-12-04T03:41:57.906Z,98328.68
2017-12-04T03:44:25.470Z,98331.02
2017-12-04T03:46:53.042Z,98332.75
2017-12-04T03:49:20.546Z,98340.35
2017-12-04T03:51:48.246Z,98326.94
2017-12-04T03:54:16.045Z,98329.59
2017-12-04T03:56:43.582Z,98339.17
2017-12-04T03:59:11.137Z,98335.84
2017-12-04T04:01:38.686Z,98338.77
2017-12-04T04:04:06.247Z,98338.33
2017-12-04T04:06:33.806Z,98339.99
2017-12-04T04:09:01.310Z,98338.77
2017-12-04T04:11:28.819Z,98343.36
2017-12-04T04:13:56.375Z,98341.32
2017-12-04T04:16:23.882Z,98347.12
2017-12-04T04:18:51.410Z,98345.45
2017-12-04T04:21:19.363Z,98341.27
2017-12-04T04:23:47.362Z,98352.45
2017-12-04T04:26:14.886Z,98350.77
2017-12-04T04:28:42.655Z,98351.17
2017-12-04T04:31:10.214Z,98348.81
2017-12-04T04:33:38.182Z,98355.18
2017-12-04T04:36:05.749Z,98361.58
2017-12-04T04:38:33.302Z,98358.29
2017-12-04T04:41:00.861Z,98354.22
2017-12-04T04:43:28.726Z,98348.40
2017-12-04T04:45:56.305Z,98349.78
2017-12-04T04:48:23.844Z,98350.78
2017-12-04T04:50:51.469Z,98347.57
2017-12-04T04:53:18.979Z,98351.45
2017-12-04T04:55:46.482Z,98356.23
2017-12-04T04:58:14.029Z,98356.55
2017-12-04T05:00:41.535Z,98354.36
2017-12-04T05:03:09.044Z,98359.10
2017-12-04T05:05:36.656Z,98358.27
2017-12-04T05:08:04.216Z,98357.48
2017-12-04T05:10:31.721Z,98359.48
2017-12-04T05:12:59.523Z,98369.12
2017-12-04T05:15:27.097Z,98371.05
2017-12-04T05:17:54.602Z,98375.91
2017-12-04T05:20:22.396Z,98378.59
2017-12-04T05:22:49.902Z,98373.09
2017-12-04T05:25:17.426Z,98377.98
2017-12-04T05:27:45.053Z,98377.70
2017-12-04T05:30:12.579Z,98388.02
2017-12-04T05:32:40.112Z,98389.53
2017-12-04T05:35:07.686Z,98395.25
2017-12-04T05:37:35.196Z,98395.19
2017-12-04T05:40:02.927Z,98399.28
2017-12-04T05:42:30.711Z,98398.18
2017-12-04T05:44:58.218Z,98399.75
2017-12-04T05:47:25.722Z,98391.56
2017-12-04T05:49:53.263Z,98392.83
2017-12-04T05:52:20.774Z,98390.39
2017-12-04T05:54:48.283Z,98392.85
2017-12-04T05:57:15.850Z,98398.00
2017-12-04T05:59:43.365Z,98395.92
2017-12-04T06:02:10.924Z,98399.26
2017-12-04T06:04:38.557Z,98408.39
2017-12-04T06:07:06.062Z,98414.56
2017-12-04T06:12:00.528Z,98410.95
2017-12-04T06:14:28.039Z,98411.83
2017-12-04T06:16:56.073Z,98411.80
2017-12-04T06:19:23.646Z,98413.39
2017-12-04T06:21:51.203Z,98414.25
2017-12-04T06:24:18.750Z,98418.06
2017-12-04T06:26:46.500Z,98414.42
2017-12-04T06:29:14.014Z,98417.75
2017-12-04T06:31:41.526Z,98421.23
2017-12-04T06:34:09.182Z,98427.11
2017-12-04T06:36:36.690Z,98426.28
2017-12-04T06:39:04.202Z,98433.98
2017-12-04T06:41:31.778Z,98438.40
2017-12-04T06:43:59.327Z,98430.80
2017-12-04T06:46:26.885Z,98434.42
2017-12-04T06:48:54.526Z,98435.02
2017-12-04T06:51:22.051Z,98435.48
2017-12-04T06:53:49.562Z,98438.01
2017-12-04T06:56:17.141Z,98434.58
2017-12-04T06:58:44.648Z,98439.52
2017-12-04T07:01:12.156Z,98446.58
2017-12-04T07:03:39.900Z,98449.30
2017-12-04T07:06:07.406Z,98464.82
2017-12-04T07:08:34.936Z,98467.65
2017-12-04T07:11:02.478Z,98467.22
2017-12-04T07:13:30.031Z,98470.70
2017-12-04T07:15:57.547Z,98467.91
2017-12-04T07:18:25.091Z,98473.88
2017-12-04T07:20:52.597Z,98476.20
2017-12-04T07:23:20.106Z,98483.53
2017-12-04T07:25:47.653Z,98490.00
2017-12-04T07:28:15.161Z,98499.89
2017-12-04T07:30:42.673Z,98498.78
2017-12-04T07:33:10.406Z,98514.33
2017-12-04T07:35:37.909Z,98513.88
2017-12-04T07:38:05.419Z,98524.73
2017-12-04T07:40:33.130Z,98524.77
2017-12-04T07:43:00.640Z,98528.53
2017-12-04T07:45:28.154Z,98532.52
2017-12-04T07:47:55.962Z,98528.79
2017-12-04T07:50:23.529Z,98533.66
2017-12-04T07:52:51.041Z,98530.80
2017-12-04T07:55:18.946Z,98525.50
2017-12-04T07:57:46.505Z,98527.11
2017-12-04T08:00:14.090Z,98526.80
2017-12-04T08:02:41.730Z,98521.44
2017-12-04T08:05:09.234Z,98520.63
2017-12-04T08:07:36.750Z,98519.98
2017-12-04T08:10:04.304Z,98519.35
2017-12-04T08:12:31.818Z,98516.84
2017-12-04T08:14:59.323Z,98515.91
2017-12-04T08:17:26.898Z,98517.08
2017-12-04T08:19:54.506Z,98502.18
2017-12-04T08:22:22.200Z,98513.98
2017-12-04T08:24:49.984Z,98512.88
2017-12-04T08:27:18.326Z,98517.15
2017-12-04T08:29:46.798Z,98520.33
2017-12-04T08:32:14.890Z,98519.02
2017-12-04T08:34:42.453Z,98520.23
2017-12-04T08:37:10.008Z,98518.58
2017-12-04T08:39:38.538Z,98520.72
2017-12-04T08:42:06.150Z,98525.02
2017-12-04T08:44:33.722Z,98529.95
2017-12-04T08:47:01.578Z,98533.56
2017-12-04T08:49:29.729Z,98537.28
2017-12-04T08:51:57.369Z,98532.72
2017-12-04T08:54:25.338Z,98540.28
2017-12-04T08:56:52.939Z,98542.11
2017-12-04T08:59:20.497Z,98547.38
2017-12-04T09:01:48.072Z,98542.70
2017-12-04T09:04:15.578Z,98547.81
2017-12-04T09:06:43.087Z,98546.69
2017-12-04T09:09:10.639Z,98550.67
2017-12-04T09:11:38.146Z,98564.42
2017-12-04T09:14:05.662Z,98562.98
2017-12-04T09:16:33.207Z,98568.86
2017-12-04T09:19:00.847Z,98567.78
2017-12-04T09:21:28.638Z,98564.64
2017-12-04T09:23:57.390Z,98565.97
2017-12-04T09:26:25.083Z,98573.95
2017-12-04T09:28:54.790Z,98570.87
2017-12-04T09:31:22.573Z,98570.44
2017-12-04T09:33:50.117Z,98571.62
2017-12-04T09:36:18.392Z,98580.63
2017-12-04T09:38:46.739Z,98585.30
2017-12-04T09:41:14.337Z,98586.05
2017-12-04T09:43:42.192Z,98583.97
2017-12-04T09:46:09.907Z,98585.61
2017-12-04T09:48:38.234Z,98587.28
2017-12-04T09:51:06.644Z,98583.06
2017-12-04T09:53:36.828Z,98589.89
2017-12-04T09:56:05.518Z,98587.78
2017-12-04T09:58:33.030Z,98592.44
2017-12-04T10:01:02.099Z,98594.11
2017-12-04T10:03:29.741Z,98589.52
2017-12-04T10:05:58.233Z,98584.10
2017-12-04T10:08:26.184Z,98579.06
2017-12-04T10:10:55.380Z,98576.59
2017-12-04T10:13:24.302Z,98574.48
2017-12-04T10:15:52.149Z,98571.91
2017-12-04T10:18:21.820Z,98580.38
2017-12-04T10:20:49.457Z,98569.33
2017-12-04T10:23:17.169Z,98576.53
2017-12-04T10:25:45.474Z,98581.33
2017-12-04T10:28:13.003Z,98579.91
2017-12-04T10:30:40.751Z,98571.43
2017-12-04T10:33:08.268Z,98573.88
2017-12-04T10:35:35.774Z,98573.02
2017-12-04T10:38:03.502Z,98577.48
2017-12-04T10:40:31.007Z,98581.56
2017-12-04T10:42:58.514Z,98578.23
2017-12-04T10:45:26.197Z,98573.81
2017-12-04T10:47:53.703Z,98571.88
2017-12-04T10:50:21.342Z,98578.30
2017-12-04T10:52:49.170Z,98571.75
2017-12-04T10:55:16.679Z,98573.54
2017-12-04T10:57:44.189Z,98577.84
2017-12-04T11:00:11.784Z,98578.58
2017-12-04T11:02:39.290Z,98582.72
2017-12-04T11:05:06.822Z,98577.75
2017-12-04T11:07:34.747Z,98576.58
2017-12-04T11:10:02.255Z,98576.56
2017-12-04T11:12:29.766Z,98571.53
2017-12-04T11:14:57.445Z,98581.20
2017-12-04T11:17:24.954Z,98576.94
2017-12-04T11:19:52.467Z,98581.18
2017-12-04T11:22:20.202Z,98579.55
2017-12-04T11:24:47.711Z,98581.70
2017-12-04T11:27:15.222Z,98585.06
2017-12-04T11:29:42.977Z,98587.13
2017-12-04T11:32:11.793Z,98579.17
2017-12-04T11:34:39.354Z,98588.44
2017-12-04T11:37:07.090Z,98585.03
2017-12-04T11:39:34.667Z,98576.65
2017-12-04T11:42:02.246Z,98572.45
2017-12-04T11:44:30.305Z,98567.41
2017-12-04T11:46:57.875Z,98582.01
2017-12-04T11:49:25.733Z,98581.23
2017-12-04T11:51:53.661Z,98581.25
2017-12-04T11:54:21.463Z,98585.80
2017-12-04T11:56:49.848Z,98584.77
2017-12-04T11:59:19.390Z,98584.77
2017-12-04T12:01:47.314Z,98584.36
2017-12-04T12:04:15.537Z,98589.48
2017-12-04T12:06:43.785Z,98591.83
2017-12-04T12:09:13.092Z,98592.31
2017-12-04T12:11:40.829Z,98593.09
2017-12-04T12:14:09.491Z,98591.01
2017-12-04T12:16:37.714Z,98596.63
2017-12-04T12:19:05.264Z,98597.95
2017-12-04T12:21:33.242Z,98590.37
2017-12-04T12:24:00.758Z,98592.89
2017-12-04T12:26:28.571Z,98588.27
2017-12-04T12:28:56.209Z,98593.75
2017-12-04T12:31:23.759Z,98593.77
2017-12-04T12:33:51.831Z,98597.59
2017-12-04T12:36:20.838Z,98596.74
2017-12-04T12:38:48.590Z,98596.77
2017-12-04T12:41:16.360Z,98586.72
2017-12-04T12:43:44.964Z,98595.96
2017-12-04T12:46:12.707Z,98596.37
2017-12-04T12:48:43.240Z,98598.50
2017-12-04T12:51:10.888Z,98596.42
2017-12-04T12:53:38.961Z,98595.56
2017-12-04T12:56:07.746Z,98593.04
2017-12-04T12:58:35.307Z,98596.41
2017-12-04T13:01:02.865Z,98596.84
2017-12-04T13:03:30.629Z,98602.63
2017-12-04T13:05:59.009Z,98600.14
2017-12-04T13:08:26.521Z,98594.69
2017-12-04T13:10:57.609Z,98597.61
2017-12-04T13:13:25.181Z,98601.81
2017-12-04T13:15:53.041Z,98605.55
2017-12-04T13:18:21.016Z,98606.03
2017-12-04T13:20:48.766Z,98603.53
2017-12-04T13:23:16.531Z,98603.05
2017-12-04T13:25:45.134Z,98608.96
2017-12-04T13:28:12.720Z,98605.20
2017-12-04T13:30:40.967Z,98607.61
2017-12-04T13:33:20.753Z,98607.69
2017-12-04T13:36:00.242Z,98611.39
2017-12-04T13:38:29.328Z,98618.95
2017-12-04T13:43:26.716Z,98622.31
2017-12-04T13:45:54.975Z,98630.34
2017-12-04T13:48:23.046Z,98625.62
2017-12-04T13:50:50.709Z,98625.22
2017-12-04T13:53:18.559Z,98632.72
2017-12-04T13:55:46.134Z,98625.58
2017-12-04T13:58:13.693Z,98624.83
2017-12-04T14:00:41.456Z,98625.30
2017-12-04T14:03:09.022Z,98635.32
2017-12-04T14:05:37.190Z,98629.86
2017-12-04T14:08:04.953Z,98621.91
2017-12-04T14:10:32.717Z,98632.36
2017-12-04T14:13:00.276Z,98624.80
2017-12-04T14:15:28.278Z,98618.84
2017-12-04T14:17:56.011Z,98625.08
2017-12-04T14:20:24.182Z,98627.16
2017-12-04T14:22:52.332Z,98628.77
2017-12-04T14:25:20.610Z,98628.66
2017-12-04T14:27:48.396Z,98626.98
2017-12-04T14:30:16.341Z,98631.29
2017-12-04T14:32:43.919Z,98635.78
2017-12-04T14:35:11.589Z,98629.50
2017-12-04T14:37:39.630Z,98630.38
2017-12-04T14:40:07.234Z,98627.74
2017-12-04T14:42:35.748Z,98626.52
2017-12-04T14:45:03.571Z,98631.23
2017-12-04T14:47:31.326Z,98631.56
2017-12-04T14:50:00.114Z,98634.02
2017-12-04T14:52:27.975Z,98634.13
2017-12-04T14:54:55.787Z,98641.66
2017-12-04T14:57:23.318Z,98644.48
2017-12-04T14:59:50.974Z,98648.78
2017-12-04T15:02:19.244Z,98650.88
2017-12-04T15:04:46.903Z,98656.78
2017-12-04T15:07:14.504Z,98653.05
2017-12-04T15:09:42.329Z,98660.57
2017-12-04T15:12:09.888Z,98662.38
2017-12-04T15:14:37.458Z,98661.13
2017-12-04T15:17:04.983Z,98657.28
2017-12-04T15:19:32.591Z,98656.92
2017-12-04T15:22:00.235Z,98657.61
2017-12-04T15:24:27.788Z,98650.89
2017-12-04T15:26:55.295Z,98660.33
2017-12-04T15:29:23.029Z,98657.86
2017-12-04T15:31:51.435Z,98656.02
2017-12-04T15:34:18.961Z,98654.39
2017-12-04T15:36:46.686Z,98656.59
2017-12-04T15:39:14.192Z,98664.67
2017-12-04T15:41:41.825Z,98661.12
2017-12-04T15:44:09.382Z,98668.58
2017-12-04T15:46:36.895Z,98668.70
2017-12-04T15:49:04.409Z,98671.26
2017-12-04T15:51:31.946Z,98669.80
2017-12-04T15:53:59.457Z,98678.19
2017-12-04T15:56:26.976Z,98675.66
2017-12-04T15:58:54.534Z,98677.03
2017-12-04T16:01:22.094Z,98673.67
2017-12-04T16:03:49.632Z,98685.66
2017-12-04T16:06:17.212Z,98689.11
2017-12-04T16:08:44.718Z,98687.28
2017-12-04T16:11:12.231Z,98699.37
2017-12-04T16:13:39.787Z,98704.03
2017-12-04T16:16:08.179Z,98705.78
2017-12-04T16:18:35.698Z,98711.63
2017-12-04T16:21:03.466Z,98714.22
2017-12-04T16:23:30.980Z,98716.59
2017-12-04T16:25:58.555Z,98717.45
2017-12-04T16:28:26.459Z,98719.86
2017-12-04T16:30:53.966Z,98715.20
2017-12-04T16:33:21.491Z,98724.14
2017-12-04T16:35:49.056Z,98726.56
2017-12-04T16:38:16.581Z,98725.41
2017-12-04T16:40:44.093Z,98726.61
2017-12-04T16:43:11.654Z,98731.28
2017-12-04T16:45:39.172Z,98733.02
2017-12-04T16:48:06.686Z,98738.94
2017-12-04T16:50:34.403Z,98742.27
2017-12-04T16:53:01.964Z,98743.03
2017-12-04T16:55:29.521Z,98744.19
2017-12-04T16:57:57.067Z,98746.94
2017-12-04T17:00:24.640Z,98753.48
2017-12-04T17:02:52.154Z,98760.75
2017-12-04T17:05:19.963Z,98757.05
2017-12-04T17:07:47.474Z,98764.55
2017-12-04T17:10:14.987Z,98767.42
2017-12-04T17:12:42.946Z,98760.55
2017-12-04T17:15:10.462Z,98760.80
2017-12-04T17:17:37.982Z,98764.34
2017-12-04T17:20:05.578Z,98767.06
2017-12-04T17:22:33.091Z,98765.38
2017-12-04T17:25:00.611Z,98766.73
2017-12-04T17:27:28.302Z,98772.05
2017-12-04T17:29:55.861Z,98779.23
2017-12-04T17:32:23.420Z,98775.25
2017-12-04T17:34:51.318Z,98765.97
2017-12-04T17:37:18.846Z,98768.18
2017-12-04T17:39:46.359Z,98773.27
2017-12-04T17:42:14.015Z,98770.23
2017-12-04T17:44:41.539Z,98771.80
2017-12-04T17:47:09.107Z,98778.53
2017-12-04T17:49:36.938Z,98783.72
2017-12-04T17:52:04.508Z,98780.87
2017-12-04T17:54:32.069Z,98784.25
2017-12-04T17:56:59.788Z,98787.81
2017-12-04T17:59:27.371Z,98797.87
2017-12-04T18:01:54.888Z,98800.98
2017-12-04T18:04:22.691Z,98799.80
2017-12-04T18:06:50.214Z,98805.51
2017-12-04T18:09:17.726Z,98807.05
2017-12-04T18:11:45.600Z,98815.05
2017-12-04T18:14:13.362Z,98809.58
2017-12-04T18:16:40.887Z,98807.81
2017-12-04T18:19:08.704Z,98806.66
2017-12-04T18:21:36.219Z,98803.66
2017-12-04T18:24:03.804Z,98805.95
2017-12-04T18:26:31.575Z,98804.85
2017-12-04T18:28:59.093Z,98808.58
2017-12-04T18:31:26.959Z,98811.45
2017-12-04T18:33:54.542Z,98811.95
2017-12-04T18:36:22.110Z,98817.80
2017-12-04T18:38:50.384Z,98821.41
2017-12-04T18:41:18.229Z,98824.02
2017-12-04T18:43:46.029Z,98833.23
2017-12-04T18:46:13.732Z,98830.70
2017-12-04T18:48:41.749Z,98840.45
2017-12-04T18:51:09.433Z,98838.34
2017-12-04T18:53:37.328Z,98844.27
2017-12-04T18:56:05.040Z,98842.59
2017-12-04T18:58:32.648Z,98846.70
2017-12-04T19:01:00.261Z,98848.53
2017-12-04T19:03:27.945Z,98848.09
2017-12-04T19:05:55.790Z,98841.33
2017-12-04T19:08:23.757Z,98844.35
2017-12-04T19:10:51.895Z,98842.11
2017-12-04T19:13:19.690Z,98848.41
2017-12-04T19:15:47.235Z,98850.12
2017-12-04T19:18:14.916Z,98850.61
2017-12-04T19:20:43.090Z,98855.94
2017-12-04T19:23:11.264Z,98857.91
2017-12-04T19:25:39.199Z,98867.16
2017-12-04T19:28:07.205Z,98869.27
2017-12-04T19:30:35.067Z,98872.55
2017-12-04T19:33:03.126Z,98874.47
2017-12-04T19:35:31.413Z,98876.45
2017-12-04T19:37:59.681Z,98877.15
2017-12-04T19:40:27.570Z,98880.22
2017-12-04T19:42:55.424Z,98875.84
2017-12-04T19:45:23.286Z,98881.47
2017-12-04T19:47:51.568Z,98881.91
2017-12-04T19:50:19.349Z,98888.31
2017-12-04T19:52:48.220Z,98893.30
2017-12-04T19:55:16.701Z,98893.19
2017-12-04T19:57:44.507Z,98900.84
2017-12-04T20:00:12.228Z,98894.64
2017-12-04T20:02:39.974Z,98903.58
2017-12-04T20:05:07.858Z,98904.63
2017-12-04T20:07:35.470Z,98905.56
2017-12-04T20:10:03.444Z,98903.93
2017-12-04T20:12:31.458Z,98901.86
2017-12-04T20:14:59.427Z,98903.28
2017-12-04T20:17:27.291Z,98905.55
2017-12-04T20:19:54.955Z,98909.34
2017-12-04T20:22:22.857Z,98915.36
2017-12-04T20:24:51.119Z,98910.14
2017-12-04T20:27:19.363Z,98910.95
2017-12-04T20:29:47.343Z,98909.22
2017-12-04T20:32:16.334Z,98912.20
2017-12-04T20:34:44.106Z,98910.05
2017-12-04T20:37:12.204Z,98910.45
2017-12-04T20:39:40.464Z,98906.30
2017-12-04T20:42:08.437Z,98901.64
2017-12-04T20:44:37.231Z,98904.63
2017-12-04T20:47:06.258Z,98911.61
2017-12-04T20:49:34.267Z,98911.23
2017-12-04T20:52:02.337Z,98909.53
2017-12-04T20:54:30.782Z,98907.28
2017-12-04T20:56:58.588Z,98917.77
2017-12-04T20:59:26.235Z,98915.29
2017-12-04T21:01:54.211Z,98916.33
2017-12-04T21:04:21.936Z,98919.44
2017-12-04T21:06:49.451Z,98916.00
2017-12-04T21:09:28.820Z,98922.52
2017-12-04T21:11:56.946Z,98933.66
2017-12-04T21:14:36.588Z,98926.47
2017-12-04T21:17:16.238Z,98933.13
2017-12-04T21:19:44.298Z,98942.22
2017-12-04T21:22:13.000Z,98948.74
2017-12-04T21:24:41.260Z,98948.24
2017-12-04T21:27:09.138Z,98945.80
2017-12-04T21:29:36.992Z,98951.23
2017-12-04T21:32:07.111Z,98949.28
2017-12-04T21:34:35.387Z,98955.12
2017-12-04T21:37:03.563Z,98956.45
2017-12-04T21:39:31.529Z,98963.06
2017-12-04T21:41:59.456Z,98970.80
2017-12-04T21:44:27.671Z,98966.91
2017-12-04T21:46:56.312Z,98960.16
2017-12-04T21:49:25.387Z,98965.98
2017-12-04T21:51:53.113Z,98964.48
2017-12-04T21:54:20.980Z,98962.81
2017-12-04T21:56:48.728Z,98967.30
2017-12-04T21:59:16.509Z,98964.59
2017-12-04T22:01:44.273Z,98963.52
2017-12-04T22:04:12.404Z,98977.27
2017-12-04T22:06:40.067Z,98965.56
2017-12-04T22:09:07.767Z,98971.39
2017-12-04T22:11:35.462Z,98969.07
2017-12-04T22:14:02.990Z,98972.34
2017-12-04T22:16:30.549Z,98972.06
2017-12-04T22:18:58.619Z,98985.58
2017-12-04T22:21:33.168Z,98989.38
2017-12-04T22:24:00.750Z,98987.45
2017-12-04T22:26:28.349Z,98985.95
2017-12-04T22:28:55.862Z,98994.08
2017-12-04T22:31:23.686Z,98994.45
2017-12-04T22:33:51.305Z,98988.62
2017-12-04T22:36:18.846Z,99000.84
2017-12-04T22:38:46.585Z,98998.99
2017-12-04T22:41:14.229Z,98996.16
2017-12-04T22:43:41.789Z,98998.52
2017-12-04T22:46:09.433Z,99000.50
2017-12-04T22:48:36.959Z,99005.29
2017-12-04T22:51:05.323Z,99006.16
2017-12-04T22:53:33.255Z,99007.44
2017-12-04T22:56:00.824Z,99005.52
2017-12-04T22:58:28.366Z,99014.12
2017-12-04T23:00:56.323Z,99006.14
2017-12-04T23:03:23.846Z,99013.39
2017-12-04T23:05:51.375Z,99018.95
2017-12-04T23:08:19.121Z,99014.12
2017-12-04T23:10:46.680Z,99016.94
2017-12-04T23:13:14.206Z,99019.79
2017-12-04T23:15:42.498Z,99021.33
2017-12-04T23:18:10.075Z,99024.03
2017-12-04T23:20:37.642Z,99018.77
2017-12-04T23:23:05.219Z,99018.91
2017-12-04T23:25:32.747Z,99022.77
2017-12-04T23:28:00.256Z,99025.55
2017-12-04T23:30:27.967Z,99029.77
2017-12-04T23:32:55.483Z,99035.70
2017-12-04T23:35:23.007Z,99040.52
2017-12-04T23:37:50.935Z,99032.42
2017-12-04T23:40:18.441Z,99024.25
2017-12-04T23:42:45.950Z,99025.22
2017-12-04T23:45:13.735Z,99037.27
2017-12-04T23:47:41.418Z,99029.89
2017-12-04T23:50:08.963Z,99033.58
2017-12-04T23:52:36.618Z,99035.41
2017-12-04T23:55:04.689Z,99032.56
2017-12-04T23:57:32.250Z,99036.53
